sensor_id;sensor_type;location;lat;lon;timestamp;P1;durP1;ratioP1;P2;durP2;ratioP2
66856;SDS011;53766;50.280;19.160;2023-07-13T00:02:01;8.90;;;3.85;;
66856;SDS011;53766;50.280;19.160;2023-07-13T00:04:29;6.45;;;3.40;;
66856;SDS011;53766;50.280;19.160;2023-07-13T00:06:59;8.35;;;3.63;;
66856;SDS011;53766;50.280;19.160;2023-07-13T00:09:27;8.05;;;3.47;;
66856;SDS011;53766;50.280;19.160;2023-07-13T00:11:55;6.90;;;3.40;;
66856;SDS011;53766;50.280;19.160;2023-07-13T00:14:25;7.05;;;3.42;;
66856;SDS011;53766;50.280;19.160;2023-07-13T00:16:54;5.57;;;3.45;;
66856;SDS011;53766;50.280;19.160;2023-07-13T00:19:22;6.90;;;3.60;;
66856;SDS011;53766;50.280;19.160;2023-07-13T00:21:49;5.95;;;3.42;;
66856;SDS011;53766;50.280;19.160;2023-07-13T00:24:17;7.95;;;3.80;;
66856;SDS011;53766;50.280;19.160;2023-07-13T00:26:50;9.57;;;4.13;;
66856;SDS011;53766;50.280;19.160;2023-07-13T00:29:19;9.50;;;3.65;;
66856;SDS011;53766;50.280;19.160;2023-07-13T00:31:48;7.35;;;3.28;;
66856;SDS011;53766;50.280;19.160;2023-07-13T00:34:15;6.38;;;3.05;;
66856;SDS011;53766;50.280;19.160;2023-07-13T00:36:43;6.45;;;3.58;;
66856;SDS011;53766;50.280;19.160;2023-07-13T00:39:12;9.07;;;3.05;;
66856;SDS011;53766;50.280;19.160;2023-07-13T00:41:40;7.43;;;3.03;;
66856;SDS011;53766;50.280;19.160;2023-07-13T00:44:11;5.47;;;3.05;;
66856;SDS011;53766;50.280;19.160;2023-07-13T00:46:41;8.30;;;3.40;;
66856;SDS011;53766;50.280;19.160;2023-07-13T00:49:10;4.60;;;3.20;;
66856;SDS011;53766;50.280;19.160;2023-07-13T00:51:46;5.57;;;3.10;;
66856;SDS011;53766;50.280;19.160;2023-07-13T00:54:21;6.95;;;3.15;;
66856;SDS011;53766;50.280;19.160;2023-07-13T00:56:52;6.03;;;3.22;;
66856;SDS011;53766;50.280;19.160;2023-07-13T00:59:23;6.82;;;3.38;;
66856;SDS011;53766;50.280;19.160;2023-07-13T01:01:51;5.90;;;2.90;;
66856;SDS011;53766;50.280;19.160;2023-07-13T01:04:19;7.80;;;3.60;;
66856;SDS011;53766;50.280;19.160;2023-07-13T01:06:47;4.90;;;2.70;;
66856;SDS011;53766;50.280;19.160;2023-07-13T01:09:15;5.78;;;2.97;;
66856;SDS011;53766;50.280;19.160;2023-07-13T01:11:43;13.23;;;3.65;;
66856;SDS011;53766;50.280;19.160;2023-07-13T01:14:12;6.07;;;3.30;;
66856;SDS011;53766;50.280;19.160;2023-07-13T01:16:40;6.03;;;2.92;;
66856;SDS011;53766;50.280;19.160;2023-07-13T01:19:22;5.28;;;3.10;;
66856;SDS011;53766;50.280;19.160;2023-07-13T01:21:53;5.90;;;3.00;;
66856;SDS011;53766;50.280;19.160;2023-07-13T01:24:20;8.73;;;3.35;;
66856;SDS011;53766;50.280;19.160;2023-07-13T01:26:48;7.20;;;3.45;;
66856;SDS011;53766;50.280;19.160;2023-07-13T01:29:16;4.60;;;3.22;;
66856;SDS011;53766;50.280;19.160;2023-07-13T01:31:43;4.75;;;3.00;;
66856;SDS011;53766;50.280;19.160;2023-07-13T01:34:12;5.20;;;3.33;;
66856;SDS011;53766;50.280;19.160;2023-07-13T01:36:39;6.60;;;3.00;;
66856;SDS011;53766;50.280;19.160;2023-07-13T01:39:07;5.10;;;3.08;;
66856;SDS011;53766;50.280;19.160;2023-07-13T01:41:35;5.55;;;3.50;;
66856;SDS011;53766;50.280;19.160;2023-07-13T01:44:21;6.40;;;3.08;;
66856;SDS011;53766;50.280;19.160;2023-07-13T01:46:48;6.07;;;3.00;;
66856;SDS011;53766;50.280;19.160;2023-07-13T01:49:16;4.95;;;2.85;;
66856;SDS011;53766;50.280;19.160;2023-07-13T01:51:43;7.00;;;3.42;;
66856;SDS011;53766;50.280;19.160;2023-07-13T01:54:11;5.70;;;3.50;;
66856;SDS011;53766;50.280;19.160;2023-07-13T01:56:38;7.63;;;3.53;;
66856;SDS011;53766;50.280;19.160;2023-07-13T01:59:07;6.60;;;3.20;;
66856;SDS011;53766;50.280;19.160;2023-07-13T02:01:35;5.50;;;3.03;;
66856;SDS011;53766;50.280;19.160;2023-07-13T02:04:03;6.68;;;3.65;;
66856;SDS011;53766;50.280;19.160;2023-07-13T02:06:30;6.70;;;3.45;;
66856;SDS011;53766;50.280;19.160;2023-07-13T02:08:58;6.78;;;3.17;;
66856;SDS011;53766;50.280;19.160;2023-07-13T02:11:26;5.07;;;3.17;;
66856;SDS011;53766;50.280;19.160;2023-07-13T02:14:00;6.43;;;3.33;;
66856;SDS011;53766;50.280;19.160;2023-07-13T02:16:31;7.13;;;3.55;;
66856;SDS011;53766;50.280;19.160;2023-07-13T02:18:58;5.35;;;3.47;;
66856;SDS011;53766;50.280;19.160;2023-07-13T02:21:27;7.72;;;3.50;;
66856;SDS011;53766;50.280;19.160;2023-07-13T02:23:55;5.22;;;3.42;;
66856;SDS011;53766;50.280;19.160;2023-07-13T02:26:25;5.95;;;3.42;;
66856;SDS011;53766;50.280;19.160;2023-07-13T02:28:53;6.15;;;3.70;;
66856;SDS011;53766;50.280;19.160;2023-07-13T02:31:20;8.93;;;3.55;;
66856;SDS011;53766;50.280;19.160;2023-07-13T02:33:48;8.45;;;3.80;;
66856;SDS011;53766;50.280;19.160;2023-07-13T02:36:15;9.75;;;4.20;;
66856;SDS011;53766;50.280;19.160;2023-07-13T02:38:43;7.65;;;3.90;;
66856;SDS011;53766;50.280;19.160;2023-07-13T02:41:11;9.13;;;3.97;;
66856;SDS011;53766;50.280;19.160;2023-07-13T02:43:39;5.40;;;3.42;;
66856;SDS011;53766;50.280;19.160;2023-07-13T02:46:07;7.68;;;4.60;;
66856;SDS011;53766;50.280;19.160;2023-07-13T02:48:35;7.68;;;3.47;;
66856;SDS011;53766;50.280;19.160;2023-07-13T02:51:04;7.07;;;3.83;;
66856;SDS011;53766;50.280;19.160;2023-07-13T02:53:32;6.38;;;3.58;;
66856;SDS011;53766;50.280;19.160;2023-07-13T02:55:59;5.80;;;3.90;;
66856;SDS011;53766;50.280;19.160;2023-07-13T02:58:27;8.23;;;4.07;;
66856;SDS011;53766;50.280;19.160;2023-07-13T03:00:55;10.90;;;3.72;;
66856;SDS011;53766;50.280;19.160;2023-07-13T03:03:23;7.05;;;4.10;;
66856;SDS011;53766;50.280;19.160;2023-07-13T03:05:58;7.07;;;3.40;;
66856;SDS011;53766;50.280;19.160;2023-07-13T03:08:27;8.48;;;3.60;;
66856;SDS011;53766;50.280;19.160;2023-07-13T03:11:01;8.25;;;3.90;;
66856;SDS011;53766;50.280;19.160;2023-07-13T03:13:33;6.32;;;4.10;;
66856;SDS011;53766;50.280;19.160;2023-07-13T03:16:01;9.07;;;3.53;;
66856;SDS011;53766;50.280;19.160;2023-07-13T03:18:29;6.95;;;3.80;;
66856;SDS011;53766;50.280;19.160;2023-07-13T03:20:56;6.95;;;3.85;;
66856;SDS011;53766;50.280;19.160;2023-07-13T03:23:24;5.70;;;3.30;;
66856;SDS011;53766;50.280;19.160;2023-07-13T03:26:02;7.22;;;3.33;;
66856;SDS011;53766;50.280;19.160;2023-07-13T03:28:32;8.27;;;3.47;;
66856;SDS011;53766;50.280;19.160;2023-07-13T03:31:05;4.43;;;3.22;;
66856;SDS011;53766;50.280;19.160;2023-07-13T03:33:34;6.95;;;3.83;;
66856;SDS011;53766;50.280;19.160;2023-07-13T03:36:03;6.00;;;3.28;;
66856;SDS011;53766;50.280;19.160;2023-07-13T03:38:32;6.90;;;3.60;;
66856;SDS011;53766;50.280;19.160;2023-07-13T03:41:00;4.95;;;3.40;;
66856;SDS011;53766;50.280;19.160;2023-07-13T03:43:28;6.00;;;3.92;;
66856;SDS011;53766;50.280;19.160;2023-07-13T03:45:55;6.28;;;3.22;;
66856;SDS011;53766;50.280;19.160;2023-07-13T03:48:23;5.85;;;3.30;;
66856;SDS011;53766;50.280;19.160;2023-07-13T03:50:50;7.28;;;3.38;;
66856;SDS011;53766;50.280;19.160;2023-07-13T03:53:18;5.93;;;3.35;;
66856;SDS011;53766;50.280;19.160;2023-07-13T03:55:45;5.88;;;3.40;;
66856;SDS011;53766;50.280;19.160;2023-07-13T03:58:23;7.32;;;3.70;;
66856;SDS011;53766;50.280;19.160;2023-07-13T04:00:54;6.15;;;3.80;;
66856;SDS011;53766;50.280;19.160;2023-07-13T04:03:22;8.05;;;3.50;;
66856;SDS011;53766;50.280;19.160;2023-07-13T04:05:49;6.60;;;3.58;;
66856;SDS011;53766;50.280;19.160;2023-07-13T04:08:17;5.97;;;3.30;;
66856;SDS011;53766;50.280;19.160;2023-07-13T04:10:44;7.70;;;3.60;;
66856;SDS011;53766;50.280;19.160;2023-07-13T04:13:12;4.85;;;2.88;;
66856;SDS011;53766;50.280;19.160;2023-07-13T04:15:40;7.63;;;3.30;;
66856;SDS011;53766;50.280;19.160;2023-07-13T04:18:07;9.95;;;3.20;;
66856;SDS011;53766;50.280;19.160;2023-07-13T04:20:35;6.18;;;3.45;;
66856;SDS011;53766;50.280;19.160;2023-07-13T04:23:03;8.98;;;3.70;;
66856;SDS011;53766;50.280;19.160;2023-07-13T04:25:30;6.53;;;3.60;;
66856;SDS011;53766;50.280;19.160;2023-07-13T04:27:58;8.52;;;3.60;;
66856;SDS011;53766;50.280;19.160;2023-07-13T04:30:25;8.10;;;3.50;;
66856;SDS011;53766;50.280;19.160;2023-07-13T04:32:53;5.68;;;3.80;;
66856;SDS011;53766;50.280;19.160;2023-07-13T04:35:21;7.18;;;3.35;;
66856;SDS011;53766;50.280;19.160;2023-07-13T04:37:49;8.52;;;3.85;;
66856;SDS011;53766;50.280;19.160;2023-07-13T04:40:17;6.97;;;3.40;;
66856;SDS011;53766;50.280;19.160;2023-07-13T04:42:45;6.35;;;3.63;;
66856;SDS011;53766;50.280;19.160;2023-07-13T04:45:14;7.20;;;3.53;;
66856;SDS011;53766;50.280;19.160;2023-07-13T04:47:42;5.93;;;3.25;;
66856;SDS011;53766;50.280;19.160;2023-07-13T04:50:09;4.53;;;2.97;;
66856;SDS011;53766;50.280;19.160;2023-07-13T04:52:39;6.50;;;3.40;;
66856;SDS011;53766;50.280;19.160;2023-07-13T04:55:06;7.18;;;3.40;;
66856;SDS011;53766;50.280;19.160;2023-07-13T04:57:35;7.85;;;3.83;;
66856;SDS011;53766;50.280;19.160;2023-07-13T05:00:02;7.50;;;3.33;;
66856;SDS011;53766;50.280;19.160;2023-07-13T05:02:33;7.28;;;3.70;;
66856;SDS011;53766;50.280;19.160;2023-07-13T05:05:02;8.32;;;3.30;;
66856;SDS011;53766;50.280;19.160;2023-07-13T05:07:31;6.53;;;3.50;;
66856;SDS011;53766;50.280;19.160;2023-07-13T05:09:59;7.70;;;3.70;;
66856;SDS011;53766;50.280;19.160;2023-07-13T05:12:27;6.30;;;3.70;;
66856;SDS011;53766;50.280;19.160;2023-07-13T05:14:55;5.38;;;3.15;;
66856;SDS011;53766;50.280;19.160;2023-07-13T05:17:22;7.30;;;3.30;;
66856;SDS011;53766;50.280;19.160;2023-07-13T05:19:50;8.68;;;4.50;;
66856;SDS011;53766;50.280;19.160;2023-07-13T05:22:17;8.63;;;4.30;;
66856;SDS011;53766;50.280;19.160;2023-07-13T05:24:45;7.38;;;3.55;;
66856;SDS011;53766;50.280;19.160;2023-07-13T05:27:12;8.32;;;4.10;;
66856;SDS011;53766;50.280;19.160;2023-07-13T05:29:40;7.57;;;4.22;;
66856;SDS011;53766;50.280;19.160;2023-07-13T05:32:08;7.43;;;3.95;;
66856;SDS011;53766;50.280;19.160;2023-07-13T05:34:35;8.05;;;4.53;;
66856;SDS011;53766;50.280;19.160;2023-07-13T05:37:03;6.55;;;3.75;;
66856;SDS011;53766;50.280;19.160;2023-07-13T05:39:30;6.15;;;3.95;;
66856;SDS011;53766;50.280;19.160;2023-07-13T05:41:58;8.15;;;4.07;;
66856;SDS011;53766;50.280;19.160;2023-07-13T05:44:25;11.38;;;3.85;;
66856;SDS011;53766;50.280;19.160;2023-07-13T05:46:53;7.10;;;3.33;;
66856;SDS011;53766;50.280;19.160;2023-07-13T05:49:23;5.75;;;3.72;;
66856;SDS011;53766;50.280;19.160;2023-07-13T05:51:50;5.63;;;3.42;;
66856;SDS011;53766;50.280;19.160;2023-07-13T05:54:18;6.15;;;3.45;;
66856;SDS011;53766;50.280;19.160;2023-07-13T05:56:45;5.43;;;3.60;;
66856;SDS011;53766;50.280;19.160;2023-07-13T05:59:13;8.20;;;4.15;;
66856;SDS011;53766;50.280;19.160;2023-07-13T06:01:41;8.52;;;4.45;;
66856;SDS011;53766;50.280;19.160;2023-07-13T06:04:08;6.68;;;4.40;;
66856;SDS011;53766;50.280;19.160;2023-07-13T06:06:36;7.40;;;4.10;;
66856;SDS011;53766;50.280;19.160;2023-07-13T06:09:03;6.80;;;3.97;;
66856;SDS011;53766;50.280;19.160;2023-07-13T06:11:31;7.45;;;3.97;;
66856;SDS011;53766;50.280;19.160;2023-07-13T06:13:58;6.93;;;3.70;;
66856;SDS011;53766;50.280;19.160;2023-07-13T06:16:26;6.07;;;3.85;;
66856;SDS011;53766;50.280;19.160;2023-07-13T06:18:53;6.75;;;4.10;;
66856;SDS011;53766;50.280;19.160;2023-07-13T06:21:21;7.63;;;3.70;;
66856;SDS011;53766;50.280;19.160;2023-07-13T06:23:50;7.68;;;4.07;;
66856;SDS011;53766;50.280;19.160;2023-07-13T06:26:19;8.88;;;3.95;;
66856;SDS011;53766;50.280;19.160;2023-07-13T06:28:47;9.18;;;4.03;;
66856;SDS011;53766;50.280;19.160;2023-07-13T06:31:15;6.63;;;3.90;;
66856;SDS011;53766;50.280;19.160;2023-07-13T06:33:43;6.85;;;3.92;;
66856;SDS011;53766;50.280;19.160;2023-07-13T06:36:11;7.88;;;4.10;;
66856;SDS011;53766;50.280;19.160;2023-07-13T06:38:39;10.32;;;4.45;;
66856;SDS011;53766;50.280;19.160;2023-07-13T06:41:07;7.50;;;3.85;;
66856;SDS011;53766;50.280;19.160;2023-07-13T06:43:35;7.90;;;3.78;;
66856;SDS011;53766;50.280;19.160;2023-07-13T06:46:03;7.57;;;3.53;;
66856;SDS011;53766;50.280;19.160;2023-07-13T06:48:31;7.53;;;3.75;;
66856;SDS011;53766;50.280;19.160;2023-07-13T06:50:58;6.60;;;3.83;;
66856;SDS011;53766;50.280;19.160;2023-07-13T06:53:26;7.47;;;3.83;;
66856;SDS011;53766;50.280;19.160;2023-07-13T06:55:53;8.20;;;3.78;;
66856;SDS011;53766;50.280;19.160;2023-07-13T06:58:21;6.90;;;3.70;;
66856;SDS011;53766;50.280;19.160;2023-07-13T07:00:50;5.68;;;3.60;;
66856;SDS011;53766;50.280;19.160;2023-07-13T07:03:18;8.90;;;3.53;;
66856;SDS011;53766;50.280;19.160;2023-07-13T07:05:46;7.30;;;3.60;;
66856;SDS011;53766;50.280;19.160;2023-07-13T07:08:14;6.13;;;3.40;;
66856;SDS011;53766;50.280;19.160;2023-07-13T07:10:42;7.88;;;3.80;;
66856;SDS011;53766;50.280;19.160;2023-07-13T07:13:09;11.68;;;3.88;;
66856;SDS011;53766;50.280;19.160;2023-07-13T07:15:37;7.22;;;3.40;;
66856;SDS011;53766;50.280;19.160;2023-07-13T07:18:04;7.78;;;3.38;;
66856;SDS011;53766;50.280;19.160;2023-07-13T07:20:32;6.35;;;3.22;;
66856;SDS011;53766;50.280;19.160;2023-07-13T07:23:00;8.50;;;3.72;;
66856;SDS011;53766;50.280;19.160;2023-07-13T07:25:27;5.45;;;3.35;;
66856;SDS011;53766;50.280;19.160;2023-07-13T07:27:58;8.93;;;3.53;;
66856;SDS011;53766;50.280;19.160;2023-07-13T07:30:29;6.70;;;3.45;;
66856;SDS011;53766;50.280;19.160;2023-07-13T07:32:59;6.03;;;3.22;;
66856;SDS011;53766;50.280;19.160;2023-07-13T07:35:31;6.60;;;3.22;;
66856;SDS011;53766;50.280;19.160;2023-07-13T07:38:05;6.05;;;3.15;;
66856;SDS011;53766;50.280;19.160;2023-07-13T07:40:35;5.35;;;3.33;;
66856;SDS011;53766;50.280;19.160;2023-07-13T07:43:07;5.00;;;3.10;;
66856;SDS011;53766;50.280;19.160;2023-07-13T07:45:36;6.15;;;2.97;;
66856;SDS011;53766;50.280;19.160;2023-07-13T07:48:05;6.28;;;3.38;;
66856;SDS011;53766;50.280;19.160;2023-07-13T07:50:33;5.47;;;3.33;;
66856;SDS011;53766;50.280;19.160;2023-07-13T07:53:00;6.30;;;3.03;;
66856;SDS011;53766;50.280;19.160;2023-07-13T07:55:29;5.20;;;2.90;;
66856;SDS011;53766;50.280;19.160;2023-07-13T07:57:59;4.75;;;3.35;;
66856;SDS011;53766;50.280;19.160;2023-07-13T08:00:30;6.45;;;3.22;;
66856;SDS011;53766;50.280;19.160;2023-07-13T08:03:18;8.35;;;3.30;;
66856;SDS011;53766;50.280;19.160;2023-07-13T08:05:49;7.25;;;3.40;;
66856;SDS011;53766;50.280;19.160;2023-07-13T08:08:39;6.40;;;3.45;;
66856;SDS011;53766;50.280;19.160;2023-07-13T08:11:09;7.32;;;3.00;;
66856;SDS011;53766;50.280;19.160;2023-07-13T08:13:40;6.97;;;3.25;;
66856;SDS011;53766;50.280;19.160;2023-07-13T08:16:08;8.05;;;4.18;;
66856;SDS011;53766;50.280;19.160;2023-07-13T08:18:35;9.20;;;4.50;;
66856;SDS011;53766;50.280;19.160;2023-07-13T08:21:07;8.60;;;3.92;;
66856;SDS011;53766;50.280;19.160;2023-07-13T08:23:36;6.20;;;3.90;;
66856;SDS011;53766;50.280;19.160;2023-07-13T08:26:04;9.05;;;3.70;;
66856;SDS011;53766;50.280;19.160;2023-07-13T08:28:31;8.73;;;4.45;;
66856;SDS011;53766;50.280;19.160;2023-07-13T08:31:01;7.35;;;3.90;;
66856;SDS011;53766;50.280;19.160;2023-07-13T08:33:30;9.07;;;4.40;;
66856;SDS011;53766;50.280;19.160;2023-07-13T08:35:58;11.63;;;4.50;;
66856;SDS011;53766;50.280;19.160;2023-07-13T08:38:25;10.60;;;4.43;;
66856;SDS011;53766;50.280;19.160;2023-07-13T08:40:53;9.10;;;4.75;;
66856;SDS011;53766;50.280;19.160;2023-07-13T08:43:30;10.70;;;4.82;;
66856;SDS011;53766;50.280;19.160;2023-07-13T08:46:12;10.30;;;4.32;;
66856;SDS011;53766;50.280;19.160;2023-07-13T08:48:51;11.25;;;4.95;;
66856;SDS011;53766;50.280;19.160;2023-07-13T08:51:26;14.13;;;5.90;;
66856;SDS011;53766;50.280;19.160;2023-07-13T08:54:05;14.65;;;5.75;;
66856;SDS011;53766;50.280;19.160;2023-07-13T08:56:56;11.85;;;5.53;;
66856;SDS011;53766;50.280;19.160;2023-07-13T08:59:27;13.25;;;6.00;;
66856;SDS011;53766;50.280;19.160;2023-07-13T09:04:59;11.00;;;5.30;;
66856;SDS011;53766;50.280;19.160;2023-07-13T09:11:49;14.10;;;6.05;;
66856;SDS011;53766;50.280;19.160;2023-07-13T09:13:55;17.50;;;7.25;;
66856;SDS011;53766;50.280;19.160;2023-07-13T09:16:47;14.07;;;7.43;;
66856;SDS011;53766;50.280;19.160;2023-07-13T09:19:20;14.95;;;7.55;;
66856;SDS011;53766;50.280;19.160;2023-07-13T09:21:53;12.93;;;7.50;;
66856;SDS011;53766;50.280;19.160;2023-07-13T09:24:28;16.02;;;7.45;;
66856;SDS011;53766;50.280;19.160;2023-07-13T09:27:19;18.92;;;7.63;;
66856;SDS011;53766;50.280;19.160;2023-07-13T09:29:58;12.65;;;6.97;;
66856;SDS011;53766;50.280;19.160;2023-07-13T09:32:36;15.60;;;6.47;;
66856;SDS011;53766;50.280;19.160;2023-07-13T09:35:14;13.65;;;6.63;;
66856;SDS011;53766;50.280;19.160;2023-07-13T09:37:44;9.90;;;6.20;;
66856;SDS011;53766;50.280;19.160;2023-07-13T09:40:24;16.25;;;6.00;;
66856;SDS011;53766;50.280;19.160;2023-07-13T09:43:02;12.05;;;5.65;;
66856;SDS011;53766;50.280;19.160;2023-07-13T09:45:32;9.82;;;5.28;;
66856;SDS011;53766;50.280;19.160;2023-07-13T09:48:05;11.10;;;5.63;;
66856;SDS011;53766;50.280;19.160;2023-07-13T09:50:38;9.15;;;5.22;;
66856;SDS011;53766;50.280;19.160;2023-07-13T09:53:16;15.15;;;5.32;;
66856;SDS011;53766;50.280;19.160;2023-07-13T09:55:46;10.25;;;5.20;;
66856;SDS011;53766;50.280;19.160;2023-07-13T09:58:24;13.32;;;5.00;;
66856;SDS011;53766;50.280;19.160;2023-07-13T10:00:54;12.20;;;6.50;;
66856;SDS011;53766;50.280;19.160;2023-07-13T10:03:36;13.23;;;5.85;;
66856;SDS011;53766;50.280;19.160;2023-07-13T10:06:14;13.05;;;6.05;;
66856;SDS011;53766;50.280;19.160;2023-07-13T10:08:45;12.65;;;5.68;;
66856;SDS011;53766;50.280;19.160;2023-07-13T10:11:29;12.77;;;4.93;;
66856;SDS011;53766;50.280;19.160;2023-07-13T10:13:58;8.68;;;3.83;;
66856;SDS011;53766;50.280;19.160;2023-07-13T10:16:28;9.27;;;3.80;;
66856;SDS011;53766;50.280;19.160;2023-07-13T10:21:34;9.10;;;3.63;;
66856;SDS011;53766;50.280;19.160;2023-07-13T10:26:48;6.85;;;2.75;;
66856;SDS011;53766;50.280;19.160;2023-07-13T10:29:23;25.77;;;3.35;;
66856;SDS011;53766;50.280;19.160;2023-07-13T10:31:55;6.10;;;2.85;;
66856;SDS011;53766;50.280;19.160;2023-07-13T10:34:25;9.25;;;4.90;;
66856;SDS011;53766;50.280;19.160;2023-07-13T10:36:54;13.30;;;4.40;;
66856;SDS011;53766;50.280;19.160;2023-07-13T10:39:24;8.43;;;3.60;;
66856;SDS011;53766;50.280;19.160;2023-07-13T10:41:57;8.52;;;3.25;;
66856;SDS011;53766;50.280;19.160;2023-07-13T10:44:28;6.07;;;3.50;;
66856;SDS011;53766;50.280;19.160;2023-07-13T10:47:07;7.00;;;2.60;;
66856;SDS011;53766;50.280;19.160;2023-07-13T10:49:41;7.35;;;2.70;;
66856;SDS011;53766;50.280;19.160;2023-07-13T10:55:30;7.70;;;2.40;;
66856;SDS011;53766;50.280;19.160;2023-07-13T10:58:15;4.88;;;2.10;;
66856;SDS011;53766;50.280;19.160;2023-07-13T11:00:56;4.47;;;2.25;;
66856;SDS011;53766;50.280;19.160;2023-07-13T11:03:31;3.78;;;2.00;;
66856;SDS011;53766;50.280;19.160;2023-07-13T11:19:07;7.78;;;2.30;;
66856;SDS011;53766;50.280;19.160;2023-07-13T11:22:09;3.50;;;1.88;;
66856;SDS011;53766;50.280;19.160;2023-07-13T11:27:30;8.18;;;2.08;;
66856;SDS011;53766;50.280;19.160;2023-07-13T11:33:14;3.80;;;2.00;;
66856;SDS011;53766;50.280;19.160;2023-07-13T11:36:12;4.45;;;1.80;;
66856;SDS011;53766;50.280;19.160;2023-07-13T11:41:37;4.40;;;1.90;;
66856;SDS011;53766;50.280;19.160;2023-07-13T11:44:17;3.75;;;1.75;;
66856;SDS011;53766;50.280;19.160;2023-07-13T11:46:48;6.32;;;2.30;;
66856;SDS011;53766;50.280;19.160;2023-07-13T11:49:25;5.35;;;2.00;;
66856;SDS011;53766;50.280;19.160;2023-07-13T11:51:56;5.30;;;2.03;;
66856;SDS011;53766;50.280;19.160;2023-07-13T11:54:28;5.63;;;2.10;;
66856;SDS011;53766;50.280;19.160;2023-07-13T11:57:44;5.47;;;1.85;;
66856;SDS011;53766;50.280;19.160;2023-07-13T11:59:59;4.30;;;1.80;;
66856;SDS011;53766;50.280;19.160;2023-07-13T12:02:39;3.85;;;1.90;;
66856;SDS011;53766;50.280;19.160;2023-07-13T12:05:10;4.45;;;1.67;;
66856;SDS011;53766;50.280;19.160;2023-07-13T12:07:42;5.68;;;1.98;;
66856;SDS011;53766;50.280;19.160;2023-07-13T12:10:28;5.95;;;1.98;;
66856;SDS011;53766;50.280;19.160;2023-07-13T12:13:01;5.63;;;1.90;;
66856;SDS011;53766;50.280;19.160;2023-07-13T12:15:38;3.75;;;1.73;;
66856;SDS011;53766;50.280;19.160;2023-07-13T12:20:48;3.63;;;1.80;;
66856;SDS011;53766;50.280;19.160;2023-07-13T12:23:25;3.85;;;1.70;;
66856;SDS011;53766;50.280;19.160;2023-07-13T12:25:56;2.95;;;1.70;;
66856;SDS011;53766;50.280;19.160;2023-07-13T12:28:32;3.20;;;1.67;;
66856;SDS011;53766;50.280;19.160;2023-07-13T12:31:05;3.97;;;1.90;;
66856;SDS011;53766;50.280;19.160;2023-07-13T12:33:48;3.38;;;1.50;;
66856;SDS011;53766;50.280;19.160;2023-07-13T12:36:24;3.85;;;1.60;;
66856;SDS011;53766;50.280;19.160;2023-07-13T12:38:52;3.65;;;1.65;;
66856;SDS011;53766;50.280;19.160;2023-07-13T12:41:21;4.13;;;1.90;;
66856;SDS011;53766;50.280;19.160;2023-07-13T12:43:50;7.03;;;1.98;;
66856;SDS011;53766;50.280;19.160;2023-07-13T12:46:20;2.45;;;1.50;;
66856;SDS011;53766;50.280;19.160;2023-07-13T12:48:51;2.72;;;1.52;;
66856;SDS011;53766;50.280;19.160;2023-07-13T12:51:39;4.07;;;1.92;;
66856;SDS011;53766;50.280;19.160;2023-07-13T12:54:12;3.85;;;1.83;;
66856;SDS011;53766;50.280;19.160;2023-07-13T12:56:44;4.90;;;1.80;;
66856;SDS011;53766;50.280;19.160;2023-07-13T12:59:20;4.57;;;1.73;;
66856;SDS011;53766;50.280;19.160;2023-07-13T13:01:49;3.58;;;1.67;;
66856;SDS011;53766;50.280;19.160;2023-07-13T13:04:17;4.15;;;1.83;;
66856;SDS011;53766;50.280;19.160;2023-07-13T13:06:49;7.45;;;1.70;;
66856;SDS011;53766;50.280;19.160;2023-07-13T13:09:28;3.58;;;1.90;;
66856;SDS011;53766;50.280;19.160;2023-07-13T13:11:56;4.32;;;1.95;;
66856;SDS011;53766;50.280;19.160;2023-07-13T13:14:23;4.25;;;1.63;;
66856;SDS011;53766;50.280;19.160;2023-07-13T13:16:51;6.72;;;2.00;;
66856;SDS011;53766;50.280;19.160;2023-07-13T13:19:22;5.40;;;1.90;;
66856;SDS011;53766;50.280;19.160;2023-07-13T13:21:52;2.58;;;1.60;;
66856;SDS011;53766;50.280;19.160;2023-07-13T13:24:22;3.03;;;1.80;;
66856;SDS011;53766;50.280;19.160;2023-07-13T13:26:51;3.63;;;1.73;;
66856;SDS011;53766;50.280;19.160;2023-07-13T13:29:22;3.47;;;1.83;;
66856;SDS011;53766;50.280;19.160;2023-07-13T13:31:54;4.82;;;1.80;;
66856;SDS011;53766;50.280;19.160;2023-07-13T13:34:23;4.63;;;1.98;;
66856;SDS011;53766;50.280;19.160;2023-07-13T13:36:52;7.85;;;1.80;;
66856;SDS011;53766;50.280;19.160;2023-07-13T13:39:34;4.25;;;2.00;;
66856;SDS011;53766;50.280;19.160;2023-07-13T13:42:03;4.40;;;2.30;;
66856;SDS011;53766;50.280;19.160;2023-07-13T13:44:31;3.78;;;2.30;;
66856;SDS011;53766;50.280;19.160;2023-07-13T13:46:59;4.03;;;2.30;;
66856;SDS011;53766;50.280;19.160;2023-07-13T13:49:27;4.00;;;2.35;;
66856;SDS011;53766;50.280;19.160;2023-07-13T13:51:55;5.97;;;2.40;;
66856;SDS011;53766;50.280;19.160;2023-07-13T13:54:24;5.90;;;2.13;;
66856;SDS011;53766;50.280;19.160;2023-07-13T13:56:53;7.88;;;2.10;;
66856;SDS011;53766;50.280;19.160;2023-07-13T13:59:20;3.67;;;1.92;;
66856;SDS011;53766;50.280;19.160;2023-07-13T14:01:48;7.28;;;2.10;;
66856;SDS011;53766;50.280;19.160;2023-07-13T14:04:18;2.75;;;1.90;;
66856;SDS011;53766;50.280;19.160;2023-07-13T14:06:47;9.40;;;2.28;;
66856;SDS011;53766;50.280;19.160;2023-07-13T14:09:16;5.65;;;2.50;;
66856;SDS011;53766;50.280;19.160;2023-07-13T14:11:46;3.45;;;2.08;;
66856;SDS011;53766;50.280;19.160;2023-07-13T14:14:21;5.47;;;2.40;;
66856;SDS011;53766;50.280;19.160;2023-07-13T14:16:51;2.97;;;2.10;;
66856;SDS011;53766;50.280;19.160;2023-07-13T14:19:22;2.92;;;2.20;;
66856;SDS011;53766;50.280;19.160;2023-07-13T14:21:50;4.43;;;2.10;;
66856;SDS011;53766;50.280;19.160;2023-07-13T14:24:20;3.50;;;2.05;;
66856;SDS011;53766;50.280;19.160;2023-07-13T14:26:48;3.38;;;1.95;;
66856;SDS011;53766;50.280;19.160;2023-07-13T14:29:16;3.60;;;1.90;;
66856;SDS011;53766;50.280;19.160;2023-07-13T14:31:50;3.45;;;1.80;;
66856;SDS011;53766;50.280;19.160;2023-07-13T14:34:18;3.20;;;1.73;;
66856;SDS011;53766;50.280;19.160;2023-07-13T14:36:47;3.03;;;1.77;;
66856;SDS011;53766;50.280;19.160;2023-07-13T14:39:17;5.53;;;1.60;;
66856;SDS011;53766;50.280;19.160;2023-07-13T14:41:49;3.00;;;1.70;;
66856;SDS011;53766;50.280;19.160;2023-07-13T14:44:21;3.33;;;1.80;;
66856;SDS011;53766;50.280;19.160;2023-07-13T14:46:51;2.28;;;1.50;;
66856;SDS011;53766;50.280;19.160;2023-07-13T14:49:21;2.67;;;1.60;;
66856;SDS011;53766;50.280;19.160;2023-07-13T14:51:50;7.65;;;1.67;;
66856;SDS011;53766;50.280;19.160;2023-07-13T14:54:18;5.50;;;1.85;;
66856;SDS011;53766;50.280;19.160;2023-07-13T14:56:46;2.92;;;1.33;;
66856;SDS011;53766;50.280;19.160;2023-07-13T14:59:14;3.55;;;2.15;;
66856;SDS011;53766;50.280;19.160;2023-07-13T15:01:42;3.90;;;1.67;;
66856;SDS011;53766;50.280;19.160;2023-07-13T15:04:09;4.45;;;1.60;;
66856;SDS011;53766;50.280;19.160;2023-07-13T15:09:25;3.03;;;1.50;;
66856;SDS011;53766;50.280;19.160;2023-07-13T15:11:54;6.68;;;1.70;;
66856;SDS011;53766;50.280;19.160;2023-07-13T15:14:23;6.03;;;1.70;;
66856;SDS011;53766;50.280;19.160;2023-07-13T15:16:54;2.15;;;1.45;;
66856;SDS011;53766;50.280;19.160;2023-07-13T15:19:23;4.15;;;2.00;;
66856;SDS011;53766;50.280;19.160;2023-07-13T15:21:53;3.50;;;1.70;;
66856;SDS011;53766;50.280;19.160;2023-07-13T15:24:24;2.70;;;1.90;;
66856;SDS011;53766;50.280;19.160;2023-07-13T15:26:52;3.35;;;1.90;;
66856;SDS011;53766;50.280;19.160;2023-07-13T15:29:19;2.58;;;1.98;;
66856;SDS011;53766;50.280;19.160;2023-07-13T15:31:47;3.00;;;1.77;;
66856;SDS011;53766;50.280;19.160;2023-07-13T15:34:15;3.40;;;1.75;;
66856;SDS011;53766;50.280;19.160;2023-07-13T15:36:46;3.58;;;1.90;;